Time;durP1;ratioP1;P1;durP2;ratioP2;P2;SDS_P1;SDS_P2;PMS_P1;PMS_P2;Temp;Humidity;BMP_temperature;BMP_pressure;BME280_temperature;BME280_humidity;BME280_pressure;Samples;Min_cycle;Max_cycle;Signal;HPM_P1;HPM_P2
2021/04/22 00:02:10;;;;;;;5.13;2.30;;;7.30;90.90;;;;;;5017158;28;20418;-73
2021/04/22 00:04:36;;;;;;;15.77;3.70;;;7.30;90.70;;;;;;5020448;28;20437;-72
2021/04/22 00:07:02;;;;;;;11.80;3.03;;;7.30;90.90;;;;;;5019088;28;20437;-72
2021/04/22 00:09:28;;;;;;;9.97;2.70;;;7.20;90.90;;;;;;5015671;28;20179;-73
2021/04/22 00:11:53;;;;;;;8.10;2.80;;;7.10;91.00;;;;;;5015052;28;20492;-72
2021/04/22 00:14:19;;;;;;;8.33;3.10;;;7.10;91.10;;;;;;5016577;28;20235;-72
2021/04/22 00:16:45;;;;;;;7.53;2.77;;;7.10;91.10;;;;;;5016203;28;20218;-72
2021/04/22 00:19:11;;;;;;;13.07;3.83;;;7.20;91.10;;;;;;5016581;28;20179;-73
2021/04/22 00:21:36;;;;;;;10.30;3.27;;;7.10;90.90;;;;;;5016302;28;20425;-72
2021/04/22 00:24:03;;;;;;;7.30;2.70;;;7.00;91.10;;;;;;5016025;28;20516;-72
2021/04/22 00:26:29;;;;;;;5.57;3.17;;;6.90;91.10;;;;;;5017713;28;20445;-72
2021/04/22 00:28:55;;;;;;;14.33;3.90;;;6.90;91.20;;;;;;5015316;28;20422;-72
2021/04/22 00:31:21;;;;;;;12.87;3.90;;;6.90;91.30;;;;;;5018443;28;20241;-72
2021/04/22 00:33:47;;;;;;;12.57;3.23;;;6.70;91.20;;;;;;5016573;28;20757;-72
2021/04/22 00:36:13;;;;;;;11.67;3.27;;;6.70;91.40;;;;;;5016282;28;20465;-72
2021/04/22 00:38:39;;;;;;;12.40;3.53;;;6.60;91.50;;;;;;5015856;28;20183;-72
2021/04/22 00:41:05;;;;;;;10.40;3.30;;;6.70;91.80;;;;;;5015600;28;20403;-73
2021/04/22 00:43:30;;;;;;;12.73;2.97;;;6.70;91.70;;;;;;5013962;28;20818;-74
2021/04/22 00:45:56;;;;;;;7.93;2.97;;;6.70;91.70;;;;;;5016035;28;20178;-74
2021/04/22 00:48:24;;;;;;;12.33;3.33;;;6.80;91.60;;;;;;5015684;28;20223;-73
2021/04/22 00:50:51;;;;;;;8.70;2.77;;;6.70;91.40;;;;;;5015171;28;20179;-73
2021/04/22 00:53:17;;;;;;;11.07;3.33;;;6.70;91.60;;;;;;5015283;28;20501;-73
2021/04/22 00:55:43;;;;;;;17.37;4.80;;;6.70;91.70;;;;;;5015850;28;20461;-73
2021/04/22 00:58:10;;;;;;;9.23;3.20;;;6.80;91.70;;;;;;5015326;28;20422;-73
2021/04/22 01:00:46;;;;;;;9.80;3.30;;;6.80;91.60;;;;;;5014281;28;20429;-74
2021/04/22 01:03:12;;;;;;;9.87;3.90;;;6.80;91.50;;;;;;5015426;28;20426;-74
2021/04/22 01:05:47;;;;;;;9.47;3.73;;;6.80;91.70;;;;;;5015057;28;20936;-72
2021/04/22 01:08:13;;;;;;;15.63;3.73;;;6.90;91.40;;;;;;5015484;28;20440;-73
2021/04/22 01:10:39;;;;;;;10.27;4.00;;;6.90;91.60;;;;;;5015231;28;20977;-73
2021/04/22 01:13:06;;;;;;;7.00;3.27;;;6.80;91.40;;;;;;5014869;28;20973;-73
2021/04/22 01:15:32;;;;;;;14.33;3.70;;;6.80;91.50;;;;;;5013259;28;20545;-73
2021/04/22 01:17:58;;;;;;;5.47;2.67;;;6.80;91.70;;;;;;5015299;28;20433;-73
2021/04/22 01:20:28;;;;;;;7.80;3.43;;;6.80;91.80;;;;;;5013978;28;20422;-73
2021/04/22 01:22:55;;;;;;;8.67;3.33;;;6.80;91.70;;;;;;5014051;28;20480;-73
2021/04/22 01:25:36;;;;;;;11.33;3.70;;;6.60;91.70;;;;;;5014831;28;20514;-72
2021/04/22 01:28:03;;;;;;;9.93;3.53;;;6.60;91.90;;;;;;5015325;28;20418;-73
2021/04/22 01:30:51;;;;;;;9.07;3.80;;;6.50;92.10;;;;;;5015151;28;20395;-73
2021/04/22 01:33:21;;;;;;;12.57;3.90;;;6.60;92.20;;;;;;5013894;28;20484;-73
2021/04/22 01:35:50;;;;;;;14.30;3.13;;;6.60;92.20;;;;;;5014807;28;20553;-74
2021/04/22 01:38:16;;;;;;;8.60;3.13;;;6.70;92.20;;;;;;5014892;28;20809;-73
2021/04/22 01:40:43;;;;;;;9.60;3.90;;;6.70;92.20;;;;;;5014591;28;20746;-73
2021/04/22 01:43:09;;;;;;;14.77;4.73;;;6.60;92.10;;;;;;5014597;28;20417;-73
2021/04/22 01:45:35;;;;;;;10.00;3.10;;;6.60;92.20;;;;;;5014680;28;20530;-73
2021/04/22 01:48:01;;;;;;;9.80;3.23;;;6.60;92.40;;;;;;5014578;28;20437;-73
2021/04/22 01:50:29;;;;;;;6.63;2.40;;;6.60;92.40;;;;;;5014489;28;20791;-73
2021/04/22 01:52:55;;;;;;;6.57;3.10;;;6.60;92.40;;;;;;5014532;28;20176;-73
2021/04/22 01:55:23;;;;;;;13.60;3.13;;;6.60;92.60;;;;;;5014438;28;20430;-73
2021/04/22 01:57:50;;;;;;;19.03;5.23;;;6.60;92.60;;;;;;5013000;28;20437;-73
2021/04/22 02:00:19;;;;;;;13.60;3.80;;;6.60;92.60;;;;;;5014602;28;20417;-73
2021/04/22 02:02:45;;;;;;;8.70;3.57;;;6.60;92.70;;;;;;5012853;28;20423;-73
2021/04/22 02:05:12;;;;;;;11.40;3.70;;;6.50;92.80;;;;;;5013166;28;20528;-73
2021/04/22 02:07:38;;;;;;;7.40;3.47;;;6.30;93.00;;;;;;5014372;28;20207;-73
2021/04/22 02:10:06;;;;;;;11.90;3.20;;;6.30;93.30;;;;;;5014755;28;20453;-73
2021/04/22 02:12:32;;;;;;;10.47;3.50;;;6.30;93.30;;;;;;5014047;28;20498;-73
2021/04/22 02:14:58;;;;;;;6.90;3.20;;;6.30;93.40;;;;;;5015459;28;20422;-73
2021/04/22 02:17:24;;;;;;;11.50;3.20;;;6.40;93.50;;;;;;5015936;28;20466;-72
2021/04/22 02:19:49;;;;;;;9.07;3.27;;;6.40;93.60;;;;;;5017770;28;20191;-72
2021/04/22 02:22:15;;;;;;;15.17;4.00;;;6.50;93.50;;;;;;5021343;28;20183;-72
2021/04/22 02:24:40;;;;;;;11.40;3.50;;;6.40;93.50;;;;;;5014184;28;20621;-72
2021/04/22 02:27:07;;;;;;;8.80;3.70;;;6.50;93.60;;;;;;5013800;28;20274;-72
2021/04/22 02:29:32;;;;;;;9.10;3.20;;;6.50;93.50;;;;;;5014862;28;20263;-72
2021/04/22 02:31:58;;;;;;;11.73;3.90;;;6.50;93.50;;;;;;5013416;28;20496;-72
2021/04/22 02:34:23;;;;;;;9.87;3.57;;;6.50;93.60;;;;;;5013794;28;20729;-72
2021/04/22 02:36:49;;;;;;;10.07;2.87;;;6.60;93.60;;;;;;5012062;28;20237;-72
2021/04/22 02:39:15;;;;;;;17.13;4.00;;;6.60;93.60;;;;;;5013720;28;20175;-72
2021/04/22 02:41:40;;;;;;;7.03;3.43;;;6.60;93.50;;;;;;5013712;28;20206;-72
2021/04/22 02:44:06;;;;;;;8.73;3.53;;;6.50;93.50;;;;;;5013714;28;20763;-72
2021/04/22 02:46:31;;;;;;;8.47;3.50;;;6.40;93.70;;;;;;5012926;28;20186;-72
2021/04/22 02:48:57;;;;;;;12.17;4.60;;;6.20;94.00;;;;;;5013403;28;20266;-72
2021/04/22 02:51:23;;;;;;;9.73;3.20;;;6.20;94.30;;;;;;5011673;28;20183;-72
2021/04/22 02:53:48;;;;;;;6.70;3.70;;;6.10;94.80;;;;;;5002879;28;20180;-72
2021/04/22 02:56:14;;;;;;;9.33;3.47;;;6.00;94.70;;;;;;4994384;28;20210;-72
2021/04/22 02:58:39;;;;;;;17.23;3.93;;;5.90;95.00;;;;;;5001268;28;20169;-72
2021/04/22 03:01:05;;;;;;;12.20;3.60;;;5.90;95.20;;;;;;5014029;28;20621;-73
2021/04/22 03:03:30;;;;;;;8.17;3.27;;;6.00;95.40;;;;;;5013868;28;20183;-73
2021/04/22 03:05:57;;;;;;;13.87;4.67;;;6.00;95.50;;;;;;5013912;28;20176;-73
2021/04/22 03:08:23;;;;;;;16.40;6.77;;;5.80;95.50;;;;;;5014184;28;20195;-72
2021/04/22 03:10:49;;;;;;;19.20;6.43;;;5.80;95.80;;;;;;5014525;28;20433;-72
2021/04/22 03:13:14;;;;;;;14.57;4.23;;;5.70;96.20;;;;;;5015513;28;20413;-72
2021/04/22 03:15:40;;;;;;;7.80;3.80;;;5.70;96.30;;;;;;5017216;28;20851;-73
2021/04/22 03:18:06;;;;;;;6.80;2.83;;;5.60;96.50;;;;;;5017363;28;20203;-72
2021/04/22 03:20:32;;;;;;;11.20;3.37;;;5.60;96.70;;;;;;5017166;28;20793;-72
2021/04/22 03:22:59;;;;;;;16.13;3.70;;;5.60;96.70;;;;;;5017048;28;20633;-73
2021/04/22 03:25:26;;;;;;;9.10;3.73;;;5.60;96.90;;;;;;5016739;28;20183;-73
2021/04/22 06:28:51;;;;;;;13.80;5.40;;;6.60;95.60;;;;;;5181448;22;20479;-72
2021/04/22 06:31:17;;;;;;;11.03;5.50;;;6.50;95.80;;;;;;4988145;28;20982;-71
2021/04/22 06:33:42;;;;;;;8.03;4.37;;;6.50;95.70;;;;;;5008986;28;20230;-71
2021/04/22 06:36:08;;;;;;;10.50;4.60;;;6.50;95.70;;;;;;5013708;28;20203;-71
2021/04/22 06:38:34;;;;;;;10.67;5.00;;;6.60;95.60;;;;;;5014585;28;20191;-71
2021/04/22 06:40:59;;;;;;;11.90;5.07;;;6.70;95.60;;;;;;5014722;28;20177;-71
2021/04/22 06:43:25;;;;;;;16.20;4.80;;;6.70;95.10;;;;;;5014736;28;21002;-71
2021/04/22 06:45:50;;;;;;;18.63;5.00;;;6.70;95.10;;;;;;5014554;28;20214;-71
2021/04/22 06:48:16;;;;;;;6.70;4.40;;;6.70;94.60;;;;;;5014437;28;20207;-71
2021/04/22 06:50:43;;;;;;;10.17;4.53;;;6.70;94.60;;;;;;5013478;28;20175;-71
2021/04/22 06:53:09;;;;;;;12.03;3.73;;;6.70;94.30;;;;;;5015113;28;20198;-72
2021/04/22 06:55:35;;;;;;;11.70;4.67;;;6.90;94.30;;;;;;5014432;28;20466;-71
2021/04/22 06:58:05;;;;;;;11.03;4.93;;;7.10;94.10;;;;;;5006324;28;20474;-71
2021/04/22 07:00:37;;;;;;;13.23;4.57;;;7.00;94.00;;;;;;4994702;28;20428;-71
2021/04/22 07:03:04;;;;;;;9.80;4.73;;;7.00;94.20;;;;;;4995359;28;20407;-71
2021/04/22 07:05:30;;;;;;;15.13;4.87;;;7.20;94.30;;;;;;4994805;28;20506;-70
2021/04/22 07:07:56;;;;;;;8.87;4.07;;;7.40;94.00;;;;;;5012421;28;20469;-71
2021/04/22 07:10:22;;;;;;;12.83;4.57;;;7.50;93.30;;;;;;5015236;28;20445;-72
2021/04/22 07:12:48;;;;;;;10.80;5.10;;;7.40;92.70;;;;;;5003193;28;20448;-71
2021/04/22 07:15:15;;;;;;;11.03;4.30;;;7.40;92.70;;;;;;5005937;28;20430;-71
2021/04/22 07:17:41;;;;;;;13.00;4.90;;;7.50;92.60;;;;;;5007868;28;20464;-70
2021/04/22 07:20:11;;;;;;;15.33;5.13;;;7.40;93.00;;;;;;4996349;28;20438;-71
2021/04/22 07:22:37;;;;;;;8.50;4.60;;;7.50;92.80;;;;;;4995227;28;20451;-75
2021/04/22 07:25:03;;;;;;;10.50;5.10;;;7.40;92.40;;;;;;4995954;28;20473;-72
2021/04/22 07:27:29;;;;;;;16.53;4.50;;;7.40;92.60;;;;;;4994765;28;20176;-72
2021/04/22 07:29:54;;;;;;;7.30;3.90;;;7.50;92.60;;;;;;4995140;28;20450;-71
2021/04/22 07:32:20;;;;;;;8.07;4.00;;;7.50;92.10;;;;;;4993846;28;20242;-71
2021/04/22 07:34:47;;;;;;;10.23;4.33;;;7.70;92.00;;;;;;4995240;28;20183;-71
2021/04/22 07:37:17;;;;;;;8.40;4.40;;;7.70;92.00;;;;;;4995102;28;20219;-72
2021/04/22 07:39:44;;;;;;;9.60;4.10;;;7.90;91.80;;;;;;4995024;28;20462;-72
2021/04/22 07:42:10;;;;;;;7.60;3.90;;;8.00;91.30;;;;;;5005624;28;20920;-72
2021/04/22 07:44:36;;;;;;;11.53;4.27;;;7.90;91.10;;;;;;4995141;28;20494;-72
2021/04/22 07:47:03;;;;;;;9.80;3.80;;;7.90;91.10;;;;;;4994841;28;20470;-72
2021/04/22 07:49:29;;;;;;;9.60;4.03;;;8.10;91.00;;;;;;4994475;28;20438;-72
2021/04/22 07:51:55;;;;;;;9.50;6.10;;;8.20;91.10;;;;;;4994379;28;20419;-71
2021/04/22 07:54:20;;;;;;;9.40;4.23;;;8.40;90.40;;;;;;4994288;28;20284;-71
2021/04/22 07:56:46;;;;;;;7.30;3.90;;;8.40;90.00;;;;;;4994843;28;20558;-71
2021/04/22 07:59:11;;;;;;;7.10;4.03;;;8.30;90.00;;;;;;4993783;28;20211;-71
2021/04/22 08:01:37;;;;;;;9.57;4.60;;;8.40;89.40;;;;;;4995618;28;20176;-71
2021/04/22 08:04:04;;;;;;;8.77;4.63;;;8.10;89.50;;;;;;4997683;28;20211;-72
2021/04/22 08:06:30;;;;;;;7.73;5.37;;;7.90;89.50;;;;;;4998970;28;20176;-72
2021/04/22 08:08:55;;;;;;;8.53;4.50;;;7.70;90.20;;;;;;4998384;28;20430;-72
2021/04/22 08:11:21;;;;;;;13.50;5.60;;;7.80;90.70;;;;;;4998582;28;20184;-72
2021/04/22 08:13:46;;;;;;;8.80;3.77;;;7.80;90.70;;;;;;4999602;28;20191;-72
2021/04/22 08:16:12;;;;;;;10.43;4.03;;;7.90;90.60;;;;;;5004506;28;20268;-72
2021/04/22 08:18:39;;;;;;;8.20;4.70;;;8.10;90.60;;;;;;5008305;28;20196;-72
2021/04/22 08:21:05;;;;;;;10.47;4.17;;;8.20;90.30;;;;;;5001918;28;20669;-71
2021/04/22 08:23:32;;;;;;;7.73;3.63;;;8.40;89.90;;;;;;4998811;28;20502;-71
2021/04/22 08:26:04;;;;;;;10.13;3.30;;;8.70;89.00;;;;;;4997668;28;20489;-72
2021/04/22 08:28:31;;;;;;;7.10;3.47;;;8.80;88.30;;;;;;4997330;28;20906;-72
2021/04/22 08:31:00;;;;;;;7.67;2.90;;;9.00;87.60;;;;;;4998033;28;20444;-72
2021/04/22 08:33:28;;;;;;;12.20;5.00;;;8.90;85.90;;;;;;4997737;28;20422;-73
2021/04/22 08:35:53;;;;;;;4.70;3.30;;;8.70;85.40;;;;;;4996210;28;20472;-72
2021/04/22 08:38:20;;;;;;;9.77;4.37;;;8.50;86.70;;;;;;4997378;28;20756;-72
2021/04/22 08:40:48;;;;;;;9.63;4.30;;;8.50;86.90;;;;;;5005710;28;20182;-72
2021/04/22 08:43:14;;;;;;;9.13;3.40;;;8.50;86.90;;;;;;5016540;28;20501;-72
2021/04/22 08:45:40;;;;;;;11.47;4.27;;;8.40;87.10;;;;;;5012029;28;20958;-72
2021/04/22 08:48:06;;;;;;;6.67;4.20;;;8.60;87.50;;;;;;4996836;28;20474;-72
2021/04/22 08:50:33;;;;;;;8.80;3.97;;;8.60;85.40;;;;;;4997299;28;20431;-72
2021/04/22 08:53:02;;;;;;;5.83;3.70;;;8.60;85.70;;;;;;4997207;28;20443;-72
2021/04/22 08:55:30;;;;;;;8.63;4.83;;;8.40;85.80;;;;;;4995735;28;20506;-72
2021/04/22 08:58:01;;;;;;;7.80;4.53;;;8.40;86.50;;;;;;4996422;28;20819;-71
2021/04/22 09:00:30;;;;;;;10.30;4.13;;;8.20;86.40;;;;;;4996373;28;20439;-72
2021/04/22 09:02:56;;;;;;;10.23;4.20;;;8.30;86.70;;;;;;4995987;28;20768;-72
2021/04/22 09:05:21;;;;;;;9.13;4.07;;;8.50;86.50;;;;;;4996979;28;20470;-72
2021/04/22 09:07:47;;;;;;;7.30;4.53;;;8.50;84.60;;;;;;4995719;28;20556;-72
2021/04/22 09:10:16;;;;;;;7.53;3.63;;;8.50;85.20;;;;;;4997147;28;20271;-72
2021/04/22 09:12:53;;;;;;;11.20;4.60;;;8.30;84.60;;;;;;4995333;28;20560;-72
2021/04/22 09:15:19;;;;;;;9.10;4.43;;;8.20;85.20;;;;;;4996675;28;20446;-72
2021/04/22 09:17:54;;;;;;;7.47;4.57;;;8.40;85.50;;;;;;4995861;28;20528;-72
2021/04/22 09:20:27;;;;;;;17.53;4.23;;;8.60;84.90;;;;;;4996896;28;20427;-72
2021/04/22 09:22:52;;;;;;;10.20;3.73;;;8.80;84.70;;;;;;4996389;28;20408;-71
2021/04/22 09:25:22;;;;;;;10.70;5.40;;;8.90;84.40;;;;;;4996260;28;20747;-71
2021/04/22 09:27:49;;;;;;;8.03;4.30;;;8.90;85.20;;;;;;4994078;28;20179;-71
2021/04/22 09:30:16;;;;;;;8.60;3.90;;;8.90;83.90;;;;;;4995830;28;20479;-71
2021/04/22 09:32:42;;;;;;;8.00;3.60;;;8.90;84.50;;;;;;4994215;28;20432;-71
2021/04/22 09:35:11;;;;;;;8.40;4.37;;;9.10;84.60;;;;;;4994661;28;20523;-71
2021/04/22 09:37:42;;;;;;;8.77;4.40;;;9.20;83.10;;;;;;4994939;28;20231;-71
2021/04/22 09:40:15;;;;;;;9.68;4.40;;;9.10;83.30;;;;;;4998543;28;20461;-71
2021/04/22 09:42:41;;;;;;;10.23;4.60;;;9.20;83.60;;;;;;5012022;28;20227;-71
2021/04/22 09:45:13;;;;;;;10.93;4.40;;;9.40;83.40;;;;;;4994368;28;20433;-71
2021/04/22 09:47:38;;;;;;;8.07;4.30;;;9.60;82.70;;;;;;4994023;28;20442;-71
2021/04/22 09:50:09;;;;;;;8.63;4.55;;;9.60;82.40;;;;;;4995238;28;20881;-71
2021/04/22 09:52:39;;;;;;;7.97;5.10;;;9.80;82.80;;;;;;4995079;28;20163;-71
2021/04/22 09:55:09;;;;;;;10.97;4.83;;;9.90;80.30;;;;;;4994766;28;20442;-72
2021/04/22 09:57:35;;;;;;;7.03;4.97;;;9.70;80.60;;;;;;4995050;28;20463;-71
2021/04/22 10:00:05;;;;;;;6.47;4.00;;;9.70;81.10;;;;;;4994243;28;20442;-71
2021/04/22 10:02:42;;;;;;;9.00;4.23;;;9.90;81.00;;;;;;4994803;28;20461;-70
2021/04/22 10:05:16;;;;;;;9.00;4.87;;;10.10;78.90;;;;;;4994493;28;20948;-71
2021/04/22 10:07:42;;;;;;;7.17;4.97;;;9.80;80.90;;;;;;4995316;28;20447;-71
2021/04/22 10:10:25;;;;;;;5.90;4.17;;;9.80;81.60;;;;;;4994731;28;20517;-71
2021/04/22 10:13:02;;;;;;;7.90;4.37;;;10.10;80.50;;;;;;4994712;28;20188;-71
2021/04/22 10:15:31;;;;;;;6.20;4.30;;;10.30;80.20;;;;;;4993872;28;20949;-71
2021/04/22 10:18:05;;;;;;;9.60;5.27;;;10.40;79.50;;;;;;4994963;28;20410;-71
2021/04/22 10:20:35;;;;;;;9.23;5.03;;;10.40;79.00;;;;;;4994817;28;20445;-71
2021/04/22 10:23:02;;;;;;;6.73;4.60;;;10.20;78.80;;;;;;4995053;28;20432;-71
2021/04/22 10:25:30;;;;;;;8.20;4.87;;;10.30;78.40;;;;;;4994356;28;20423;-71
2021/04/22 10:28:13;;;;;;;6.10;5.10;;;10.10;78.50;;;;;;4996075;28;20506;-71
2021/04/22 10:30:42;;;;;;;10.07;5.47;;;10.00;79.00;;;;;;4999544;28;20427;-72
2021/04/22 10:33:08;;;;;;;8.50;5.47;;;9.90;81.00;;;;;;5002277;28;20412;-71
2021/04/22 10:35:36;;;;;;;8.80;5.40;;;10.00;79.60;;;;;;4997128;28;20521;-72
2021/04/22 10:38:04;;;;;;;6.93;5.20;;;10.20;80.20;;;;;;4995728;28;20419;-72
2021/04/22 10:40:35;;;;;;;6.90;5.47;;;10.40;79.40;;;;;;4995496;28;20523;-72
2021/04/22 10:43:03;;;;;;;12.90;6.63;;;10.80;79.00;;;;;;4993135;28;20591;-72
2021/04/22 10:45:53;;;;;;;8.10;7.00;;;10.80;78.70;;;;;;4994472;28;20434;-72
2021/04/22 10:48:19;;;;;;;10.83;7.00;;;10.70;78.30;;;;;;4992998;28;20423;-71
2021/04/22 10:54:37;;;;;;;14.33;8.30;;;10.40;77.60;;;;;;4992441;28;21062;-72
2021/04/22 10:57:08;;;;;;;10.53;9.27;;;10.30;78.00;;;;;;4995135;28;20783;-71
2021/04/22 10:59:35;;;;;;;9.70;7.87;;;10.40;77.60;;;;;;4995935;28;20536;-72
2021/04/22 11:05:34;;;;;;;12.73;8.70;;;10.70;76.90;;;;;;4992360;28;20445;-72
2021/04/22 11:08:07;;;;;;;11.93;8.40;;;10.90;76.90;;;;;;4994583;28;20437;-71
2021/04/22 11:10:42;;;;;;;13.20;7.70;;;11.00;77.30;;;;;;4994241;28;20455;-70
2021/04/22 11:13:16;;;;;;;8.80;7.90;;;11.20;77.40;;;;;;4994668;28;20407;-70
2021/04/22 11:15:57;;;;;;;14.53;6.90;;;11.40;77.50;;;;;;4993448;28;20430;-71
2021/04/22 11:18:38;;;;;;;8.70;7.07;;;11.50;76.10;;;;;;4995094;28;20753;-71
2021/04/22 11:21:06;;;;;;;10.67;6.40;;;11.10;75.20;;;;;;4993197;28;20522;-71
2021/04/22 11:23:41;;;;;;;10.43;6.90;;;10.90;74.40;;;;;;4994604;28;20860;-72
2021/04/22 11:26:23;;;;;;;9.63;5.83;;;10.70;74.50;;;;;;4993808;28;20434;-71
2021/04/22 11:28:50;;;;;;;9.17;7.00;;;10.70;75.50;;;;;;4994190;28;20437;-72
2021/04/22 11:31:20;;;;;;;8.23;5.87;;;10.60;75.20;;;;;;4994252;28;20588;-72
2021/04/22 11:33:46;;;;;;;9.53;6.63;;;10.60;75.40;;;;;;4993637;28;20421;-72
2021/04/22 11:36:21;;;;;;;14.20;6.63;;;10.50;76.00;;;;;;4994629;28;20974;-71
2021/04/22 11:38:50;;;;;;;10.43;6.50;;;10.70;76.40;;;;;;4998204;28;20461;-72
2021/04/22 11:41:16;;;;;;;10.87;6.40;;;10.80;76.00;;;;;;5016909;28;20429;-71
2021/04/22 11:43:41;;;;;;;8.00;6.40;;;10.80;75.80;;;;;;5008092;28;20926;-71
2021/04/22 11:46:07;;;;;;;10.40;5.93;;;10.70;75.90;;;;;;5007278;28;20662;-71
2021/04/22 11:48:41;;;;;;;7.30;5.67;;;10.40;77.00;;;;;;4999434;28;20231;-72
2021/04/22 11:51:08;;;;;;;10.67;6.50;;;10.30;77.70;;;;;;5001316;28;20244;-71
2021/04/22 11:53:42;;;;;;;7.40;5.90;;;10.40;77.90;;;;;;4999041;28;20431;-71
2021/04/22 11:56:11;;;;;;;13.33;6.03;;;10.50;77.60;;;;;;4998405;28;20461;-71
2021/04/22 11:58:38;;;;;;;7.50;5.90;;;10.70;77.30;;;;;;4998288;28;20930;-72
2021/04/22 12:01:09;;;;;;;8.33;6.00;;;10.70;76.10;;;;;;4997599;28;20416;-72
2021/04/22 12:03:38;;;;;;;8.03;6.10;;;10.70;75.80;;;;;;4997304;28;20445;-71
2021/04/22 12:06:16;;;;;;;9.60;5.90;;;10.60;75.50;;;;;;4995887;28;20468;-71
2021/04/22 12:08:51;;;;;;;5.37;4.87;;;10.60;76.20;;;;;;4996940;28;20445;-71
2021/04/22 12:11:19;;;;;;;7.70;5.80;;;10.80;76.10;;;;;;4998180;28;20423;-71
2021/04/22 12:13:46;;;;;;;8.67;5.37;;;10.90;75.50;;;;;;4995696;28;20426;-71
2021/04/22 12:16:12;;;;;;;9.83;6.23;;;11.10;75.60;;;;;;4997341;28;20947;-71
2021/04/22 12:18:40;;;;;;;9.50;6.43;;;11.20;74.70;;;;;;4997072;28;20431;-71
2021/04/22 12:21:11;;;;;;;7.60;5.80;;;11.20;74.30;;;;;;4997785;28;20185;-71
2021/04/22 12:23:49;;;;;;;9.27;5.73;;;11.10;74.30;;;;;;4997993;28;20407;-71
2021/04/22 12:26:23;;;;;;;6.40;5.80;;;11.00;74.20;;;;;;4997203;28;20859;-71
2021/04/22 12:29:15;;;;;;;8.53;5.90;;;11.00;75.00;;;;;;4995710;28;21030;-71
2021/04/22 12:31:49;;;;;;;13.47;7.50;;;11.10;75.40;;;;;;4996713;28;20450;-71
2021/04/22 12:34:16;;;;;;;8.63;6.40;;;11.10;74.80;;;;;;4997041;28;20492;-71
2021/04/22 12:37:06;;;;;;;8.10;5.80;;;11.20;74.20;;;;;;4996706;28;20459;-71
2021/04/22 12:39:33;;;;;;;8.13;6.40;;;11.20;74.20;;;;;;4995303;28;20967;-71
2021/04/22 12:42:08;;;;;;;14.47;6.60;;;11.20;73.90;;;;;;5015445;28;20875;-72
2021/04/22 12:44:34;;;;;;;9.03;6.10;;;11.30;73.60;;;;;;5014236;28;22574;-71
2021/04/22 12:47:05;;;;;;;10.03;6.83;;;11.30;73.90;;;;;;5009832;28;20554;-72
2021/04/22 12:49:31;;;;;;;9.00;6.00;;;11.30;74.10;;;;;;5010671;28;20466;-72
2021/04/22 12:51:57;;;;;;;7.80;5.97;;;11.40;74.70;;;;;;5014341;28;20437;-72
2021/04/22 12:54:25;;;;;;;10.40;5.50;;;11.50;74.10;;;;;;5012825;28;20461;-71
2021/04/22 12:56:51;;;;;;;8.03;4.53;;;11.40;72.40;;;;;;5013372;28;20555;-72
2021/04/22 12:59:16;;;;;;;6.57;4.67;;;11.40;71.60;;;;;;5013415;28;20557;-72
2021/04/22 13:01:42;;;;;;;6.13;4.80;;;11.50;70.00;;;;;;5014127;28;20996;-71
2021/04/22 13:04:12;;;;;;;11.17;5.63;;;11.50;70.30;;;;;;5011993;28;20261;-72
2021/04/22 13:06:41;;;;;;;7.53;4.90;;;11.40;70.90;;;;;;5012949;28;20184;-72
2021/04/22 13:09:07;;;;;;;8.30;5.80;;;11.50;71.20;;;;;;5007359;28;20488;-72
2021/04/22 13:11:35;;;;;;;9.10;6.47;;;11.50;71.40;;;;;;5012220;28;20506;-71
2021/04/22 13:14:02;;;;;;;17.70;5.97;;;11.50;71.30;;;;;;5012260;28;20433;-71
2021/04/22 13:16:30;;;;;;;7.80;6.00;;;11.60;71.70;;;;;;5011879;28;20473;-71
2021/04/22 13:18:58;;;;;;;9.23;5.50;;;11.70;72.00;;;;;;5012297;28;20470;-72
2021/04/22 13:21:26;;;;;;;11.53;5.97;;;11.70;72.20;;;;;;5011977;28;20422;-71
2021/04/22 13:23:53;;;;;;;6.40;5.67;;;11.90;72.50;;;;;;5012810;28;20426;-72
2021/04/22 13:26:22;;;;;;;16.03;6.20;;;12.00;72.50;;;;;;5012879;28;20513;-71
2021/04/22 13:28:55;;;;;;;10.23;6.60;;;12.20;72.90;;;;;;5012248;28;20545;-71
2021/04/22 13:31:25;;;;;;;8.50;5.97;;;12.20;72.00;;;;;;5013530;28;20446;-71
2021/04/22 13:34:04;;;;;;;10.10;6.10;;;12.30;72.10;;;;;;5018806;28;20461;-70
2021/04/22 13:36:38;;;;;;;8.30;6.30;;;12.30;72.10;;;;;;5026966;28;20477;-71
2021/04/22 13:39:04;;;;;;;8.50;6.10;;;12.50;71.10;;;;;;5022409;28;20541;-70
2021/04/22 13:41:29;;;;;;;7.60;6.17;;;12.70;71.10;;;;;;5014950;28;20442;-71
2021/04/22 13:43:57;;;;;;;9.80;6.10;;;13.00;70.90;;;;;;5014316;28;20521;-71
2021/04/22 13:46:23;;;;;;;9.20;6.30;;;13.10;68.80;;;;;;5011907;28;20238;-71
2021/04/22 13:48:55;;;;;;;9.30;5.77;;;13.00;67.70;;;;;;5012319;28;20485;-72
2021/04/22 13:51:24;;;;;;;12.57;5.73;;;12.80;68.40;;;;;;5013931;28;20513;-71
2021/04/22 13:53:49;;;;;;;8.67;5.80;;;13.00;68.60;;;;;;5012678;28;20419;-71
2021/04/22 13:56:15;;;;;;;11.57;6.07;;;13.00;68.60;;;;;;5011077;28;20813;-71
2021/04/22 13:58:43;;;;;;;9.50;6.40;;;13.00;67.90;;;;;;5012707;28;20199;-71
2021/04/22 14:01:22;;;;;;;7.37;6.07;;;12.80;69.20;;;;;;5012755;28;20211;-71
2021/04/22 14:03:55;;;;;;;7.97;5.33;;;12.80;69.50;;;;;;5012415;28;20965;-72
2021/04/22 14:06:33;;;;;;;7.00;5.80;;;13.10;68.40;;;;;;5011919;28;20418;-71
2021/04/22 14:08:58;;;;;;;8.13;5.50;;;13.20;67.90;;;;;;5011931;28;20454;-73
2021/04/22 14:11:24;;;;;;;10.00;5.93;;;13.30;67.50;;;;;;5013295;28;20485;-71
2021/04/22 14:13:50;;;;;;;7.00;6.07;;;13.40;66.30;;;;;;5012937;28;20721;-71
2021/04/22 14:16:17;;;;;;;7.97;5.60;;;13.40;66.30;;;;;;5013097;28;20210;-72
2021/04/22 14:18:44;;;;;;;10.63;6.37;;;13.50;67.10;;;;;;5009886;28;20830;-71
2021/04/22 14:21:09;;;;;;;9.40;6.40;;;13.30;67.00;;;;;;5013258;28;20942;-71
2021/04/22 14:23:35;;;;;;;9.53;5.90;;;13.30;67.70;;;;;;5012888;28;20472;-71
2021/04/22 14:26:01;;;;;;;8.30;5.63;;;13.50;67.90;;;;;;5012777;28;20191;-71
2021/04/22 14:28:27;;;;;;;9.57;5.93;;;13.60;67.60;;;;;;5011530;28;20167;-72
2021/04/22 14:30:52;;;;;;;7.03;5.10;;;13.70;66.50;;;;;;5012802;28;20493;-72
2021/04/22 14:33:18;;;;;;;10.23;5.40;;;13.90;66.90;;;;;;5011850;28;20175;-71
2021/04/22 14:35:44;;;;;;;10.20;5.80;;;14.10;65.70;;;;;;5012707;28;20251;-71
2021/04/22 14:38:09;;;;;;;8.00;6.00;;;14.00;64.70;;;;;;5012831;28;20176;-71
2021/04/22 14:40:36;;;;;;;9.73;5.30;;;14.10;64.90;;;;;;5011376;28;20298;-71
2021/04/22 14:43:03;;;;;;;12.67;6.07;;;14.20;64.30;;;;;;5014562;28;20167;-72
2021/04/22 14:45:29;;;;;;;7.50;5.20;;;14.30;63.90;;;;;;5013893;28;20417;-71
2021/04/22 14:47:54;;;;;;;15.53;6.00;;;14.50;63.80;;;;;;5013737;28;20510;-71
2021/04/22 14:50:20;;;;;;;8.30;4.93;;;14.20;62.90;;;;;;5003055;28;20212;-71
2021/04/22 14:52:46;;;;;;;8.33;5.57;;;14.20;62.80;;;;;;4995885;28;20172;-71
2021/04/22 14:55:12;;;;;;;7.43;5.00;;;14.30;62.40;;;;;;4995698;28;20752;-71
2021/04/22 14:57:38;;;;;;;6.57;4.70;;;14.00;61.40;;;;;;5000355;28;20212;-71
2021/04/22 15:00:08;;;;;;;8.70;4.87;;;13.90;61.50;;;;;;5006507;28;20443;-71
2021/04/22 15:02:33;;;;;;;9.23;5.70;;;14.00;61.90;;;;;;5000642;28;20420;-70
2021/04/22 15:04:59;;;;;;;8.63;5.30;;;14.30;61.60;;;;;;4996073;28;20219;-70
2021/04/22 15:07:26;;;;;;;6.03;5.40;;;14.60;61.10;;;;;;4994670;28;20234;-70
2021/04/22 15:09:56;;;;;;;9.10;5.50;;;14.80;59.80;;;;;;4994166;28;20208;-71
2021/04/22 15:12:22;;;;;;;5.83;4.93;;;15.00;59.50;;;;;;4998316;28;20533;-71
2021/04/22 15:14:50;;;;;;;9.50;5.50;;;15.00;59.60;;;;;;4998798;28;20407;-72
2021/04/22 15:17:16;;;;;;;8.37;5.10;;;15.00;59.50;;;;;;4998265;28;20521;-71
2021/04/22 15:19:42;;;;;;;8.53;5.13;;;14.90;60.10;;;;;;4997978;28;20485;-71
2021/04/22 15:22:09;;;;;;;7.53;4.60;;;14.80;60.00;;;;;;4998224;28;20645;-70
2021/04/22 15:24:42;;;;;;;7.80;5.47;;;14.60;60.50;;;;;;4997998;28;20415;-71
2021/04/22 15:27:09;;;;;;;7.73;5.10;;;14.70;61.30;;;;;;4993937;28;20415;-70
2021/04/22 15:29:35;;;;;;;7.93;4.90;;;14.80;61.20;;;;;;4984408;28;20467;-71
2021/04/22 15:32:00;;;;;;;8.10;4.80;;;15.10;61.10;;;;;;4991198;28;20423;-70
2021/04/22 15:34:26;;;;;;;6.93;5.10;;;15.50;60.30;;;;;;4988032;28;20527;-70
2021/04/22 15:36:53;;;;;;;7.33;5.07;;;15.30;60.10;;;;;;4982826;28;20201;-71
2021/04/22 15:39:19;;;;;;;7.30;4.97;;;15.30;60.50;;;;;;4986068;28;20465;-71
2021/04/22 15:41:47;;;;;;;10.40;5.57;;;15.20;59.80;;;;;;4992124;28;20415;-71
2021/04/22 15:44:14;;;;;;;8.80;4.67;;;14.90;59.70;;;;;;4991219;28;20427;-70
2021/04/22 15:46:40;;;;;;;10.13;5.53;;;14.70;59.80;;;;;;4985278;28;20920;-70
2021/04/22 15:49:05;;;;;;;6.70;4.90;;;14.40;60.40;;;;;;4985200;28;20459;-71
2021/04/22 15:51:31;;;;;;;8.40;4.93;;;14.30;60.20;;;;;;4984895;28;20547;-73
2021/04/22 15:53:58;;;;;;;6.77;4.57;;;14.10;60.20;;;;;;4988538;28;20215;-72
2021/04/22 15:56:24;;;;;;;10.20;5.77;;;14.00;60.50;;;;;;4984901;28;20196;-72
2021/04/22 15:58:50;;;;;;;7.00;4.93;;;13.90;60.80;;;;;;4981182;28;20549;-72
2021/04/22 16:01:17;;;;;;;6.73;4.40;;;13.80;60.90;;;;;;4974668;28;20199;-71